Aérodrome :
LOGIN :

S'inscrire | Disclaimer

   EN    FR    IT 

 










Légende :    VFR   VFR Marginal   IFR   IFR Intensif   IFR Très Intensif
Visi : 
Plafond : 
>= 8 km
>= 3000ft
5 à 8 km
1000 à 3000 ft
1500m à 5 km
500 à 1000 ft
800 à 1500m
200 à 500 ft
< 800m
< 200 ft
Symboles :   Orages  Brouillard  Fortes neiges  Fortes précipitations  Vent > 20 kt
SIGMETs :   Divers  Orages  Givrage  Turbulence  Onde Orograph.  Cendres Volcan.






- Altitude de l'aérodrome : -15 ft
- Code IATA : RTM


EHRD - Rotterdam Zestienhoven

DERNIER METAR :
  • 260455Z AUTO 20008KT 7000 SCT022 10/10 Q1017 NOSIG

METARs EXPIRÉS :
  • 260425Z AUTO 19007KT 170V230 7000 SCT023 BKN027 BKN030 11/10 Q1017 NOSIG
  • 260355Z AUTO 19007KT 9000 FEW024 10/10 Q1017 TEMPO 6000
  • 260325Z AUTO 20006KT 9999 BKN025 BKN029 BKN033 10/10 Q1017 NOSIG
  • 260255Z AUTO 21005KT 9000 NCD 10/10 Q1017 NOSIG
  • 260225Z AUTO 21006KT 170V230 8000 NCD 10/10 Q1017 NOSIG

TAF TAF EHRD
Valide du 26 à 00h jusqu'au 27 à 06h UTC


252322Z 2600/2706 22007KT 9999 FEW012 SCT018
PROB30
TEMPO 2600/2608 6000 BKN006
BECMG 2608/2611 22013KT SCT020
PROB40
TEMPO 2617/2622 6000 -DZ SCT007 BKN014
PROB30 2620/2706 BKN007



MET'MAP, la Météo Aéronautique d'un coup d'oeil ! - Copyright ORBIFLY Décembre 2007 - Disclaimer

ORBIFLY MET'MAP TEAM :

Programmation & Développement : Alexandra Zaïnal
Sur une idée originale de : Baudouin d'Aumeries
Assistance à la programmation : Marc-Olivier Méhu
Soutien technique & logistique : Manuel Goepfert

Contact : metmap@orbifly.com




SOURCES & CREDITS :

   NOAA